Flight Track Log - Related Links

Times and Time Zones

All times are in EDT time to prevent confusion due to time zone crossing. See the SWA1761 flight status page for this flight to view local times or setup timezone preferences in your user account.

Time Position Orientation Groundspeed Altitude Reporting Facility
EDT Latitude Longitude Course Direction KTS MPH feet Rate Location/Type
Tue 04:02:30 PM 41.7506 -87.7925 219° Southwest 179 206 3,100  Level Chicago Center
Tue 04:03:33 PM 41.7025 -87.8439 219° Southwest 223 257 5,500 2,304 Climbing Chicago Center
Tue 04:04:35 PM 41.6433 -87.8914 211° Southwest 246 283 7,900 2,952 Climbing Chicago Center
Tue 04:05:37 PM 41.5642 -87.9367 203° Southwest 258 297 11,600 2,032 Climbing Chicago Center
Tue 04:06:39 PM 41.4956 -87.9775 204° Southwest 268 308 12,100 1,113 Climbing Chicago Center
Tue 04:07:41 PM 41.4275 -88.0200 205° Southwest 288 331 13,900 2,516 Climbing Chicago Center
Tue 04:08:43 PM 41.3206 -88.0592 195° South 332 382 17,300 3,000 Climbing Chicago Center
Tue 04:09:45 PM 41.2214 -88.0925 194° South 359 413 20,100 2,613 Climbing Chicago Center
Tue 04:10:47 PM 41.1122 -88.1231 192° South 390 449 22,700 1,935 Climbing Chicago Center
Tue 04:11:49 PM 41.0025 -88.1547 192° South 404 465 24,100 2,032 Climbing Chicago Center
Tue 04:12:51 PM 40.8697 -88.1933 192° South 409 471 26,900 2,274 Climbing Chicago Center
Tue 04:13:53 PM 40.7528 -88.2247 191° South 427 491 28,800 1,742 Climbing Chicago Center
Tue 04:14:55 PM 40.6328 -88.2589 192° South 441 507 30,500 1,742 Climbing Chicago Center
Tue 04:15:57 PM 40.5100 -88.2936 192° South 452 520 32,400 1,632 Climbing Chicago Center
Tue 04:17:00 PM 40.3875 -88.3286 192° South 453 521 33,900 912 Climbing Chicago Center
Tue 04:18:02 PM 40.2664 -88.3700 195° South 457 526 34,300 1,258 Climbing Chicago Center
Tue 04:19:04 PM 40.1306 -88.4283 198° South 449 517 36,500 1,895 Climbing Chicago Center
Tue 04:19:56 PM 40.0389 -88.4686 199° South 446 513 37,900 789 Climbing Kansas City Center
Tue 04:20:58 PM 39.9225 -88.5197 199° South 442 509 38,000 48 Climbing Kansas City Center
Tue 04:22:00 PM 39.8047 -88.5711 199° South 443 510 38,000  Level Kansas City Center
Tue 04:23:02 PM 39.6681 -88.6294 198° South 434 499 38,000  Level Kansas City Center
Tue 04:24:04 PM 39.5542 -88.6794 199° South 431 496 38,000  Level Kansas City Center
Tue 04:25:06 PM 39.4400 -88.7286 198° South 430 495 38,000  Level Kansas City Center
Tue 04:26:08 PM 39.3256 -88.7783 199° South 427 491 38,000  Level Kansas City Center
Tue 04:27:10 PM 39.2103 -88.8269 198° South 431 496 38,000 242 Level Kansas City Center
Tue 04:28:12 PM 39.0956 -88.8758 198° South 433 498 38,500 726 Climbing Kansas City Center
Tue 04:29:14 PM 38.9775 -88.9253 198° South 440 506 39,500 726 Climbing Kansas City Center
Tue 04:30:16 PM 38.8314 -88.9867 198° South 445 512 40,000 242 Climbing Kansas City Center
Tue 04:31:18 PM 38.7136 -89.0364 198° South 445 512 40,000  Level Kansas City Center
Tue 04:32:20 PM 38.5983 -89.0856 198° South 438 504 40,000  Level Kansas City Center
Tue 04:33:22 PM 38.4742 -89.1367 198° South 434 499 40,000  Level Kansas City Center
Tue 04:34:24 PM 38.3561 -89.1761 195° South 438 504 40,000  Level Kansas City Center
Tue 04:35:26 PM 38.2278 -89.2083 191° South 435 501 40,000  Level Kansas City Center
Tue 04:36:28 PM 38.1106 -89.2381 191° South 431 496 40,000  Level Kansas City Center
Tue 04:37:30 PM 37.9953 -89.2661 191° South 423 487 40,000  Level Kansas City Center
Tue 04:38:32 PM 37.8711 -89.2964 191° South 421 484 40,000  Level Kansas City Center
Tue 04:39:34 PM 37.7544 -89.3244 191° South 421 484 40,000  Level Kansas City Center
Tue 04:40:36 PM 37.6389 -89.3531 191° South 422 486 40,000  Level Kansas City Center
Tue 04:41:38 PM 37.5247 -89.3789 190° South 420 483 40,000  Level Kansas City Center
Tue 04:42:41 PM 37.4083 -89.4092 192° South 423 487 40,000  Level Kansas City Center
Tue 04:43:10 PM 37.3389 -89.4361 197° South 428 493 40,000  Level Memphis Center
Tue 04:44:10 PM 37.2225 -89.4633 191° South 428 493 40,000  Level Memphis Center
Tue 04:45:10 PM 37.1058 -89.4908 191° South 428 493 40,000  Level Memphis Center
Tue 04:46:10 PM 36.9894 -89.5206 192° South 428 493 40,000  Level Memphis Center
Tue 04:47:10 PM 36.8731 -89.5478 191° South 428 493 40,000  Level Memphis Center
Tue 04:48:10 PM 36.7586 -89.5747 191° South 428 493 40,000  Level Memphis Center
Tue 04:49:10 PM 36.6483 -89.6044 192° South 428 493 40,000  Level Memphis Center
Tue 04:50:10 PM 36.5358 -89.6339 192° South 423 487 40,000  Level Memphis Center
Tue 04:51:10 PM 36.4214 -89.6581 190° South 418 481 40,000  Level Memphis Center
Tue 04:52:10 PM 36.3111 -89.6847 191° South 412 474 40,000  Level Memphis Center
Tue 04:53:10 PM 36.1986 -89.7114 191° South 412 474 40,000 300 Level Memphis Center
Tue 04:54:10 PM 36.0883 -89.7353 190° South 412 474 40,600 500 Climbing Memphis Center
Tue 04:55:10 PM 35.9758 -89.7619 191° South 412 474 41,000 200 Climbing Memphis Center
Tue 04:56:10 PM 35.8653 -89.7858 190° South 412 474 41,000  Level Memphis Center
Tue 04:57:10 PM 35.7550 -89.8094 190° South 412 474 41,000  Level Memphis Center
Tue 04:58:10 PM 35.6633 -89.8333 192° South 394 453 41,000  Level Memphis Center
Tue 04:59:10 PM 35.5444 -89.8594 190° South 389 448 41,000  Level Memphis Center
Tue 05:00:10 PM 35.4342 -89.8856 191° South 400 460 41,000  Level Memphis Center
Tue 05:01:10 PM 35.3258 -89.9142 192° South 400 460 41,000  Level Memphis Center
Tue 05:02:10 PM 35.2172 -89.9378 190° South 400 460 41,000  Level Memphis Center
Tue 05:03:10 PM 35.1089 -89.9661 192° South 406 467 41,000  Level Memphis Center
Tue 05:04:10 PM 35.0006 -89.9919 191° South 406 467 41,000  Level Memphis Center
Tue 05:05:10 PM 34.8881 -90.0153 190° South 406 467 41,000 -150 Level Memphis Center
Tue 05:06:10 PM 34.7753 -90.0361 189° South 416 479 40,700 -650 Descending Memphis Center
Tue 05:07:10 PM 34.6669 -90.0542 188° South 409 471 39,700 -1,000 Descending Memphis Center
Tue 05:08:10 PM 34.5625 -90.0747 189° South 395 455 38,700 -950 Descending Memphis Center
Tue 05:09:10 PM 34.4603 -90.0928 188° South 383 441 37,800 -1,300 Descending Memphis Center
Tue 05:10:10 PM 34.3561 -90.1106 188° South 378 435 36,100 -2,050 Descending Memphis Center
Tue 05:11:10 PM 34.2456 -90.1336 190° South 389 448 33,700 -2,500 Descending Memphis Center
Tue 05:12:10 PM 34.1308 -90.1539 188° South 417 480 31,100 -2,550 Descending Memphis Center
Tue 05:13:10 PM 34.0056 -90.1767 189° South 452 520 28,600 -1,550 Descending Memphis Center
Tue 05:14:10 PM 33.8825 -90.1994 189° South 452 520 28,000 -300 Descending Memphis Center
Tue 05:15:10 PM 33.7761 -90.2222 190° South 452 520 28,000  Level Memphis Center
Tue 05:16:10 PM 33.6489 -90.2425 188° South 451 519 28,000  Level Memphis Center
Tue 05:17:10 PM 33.5256 -90.2650 189° South 451 519 28,000  Level Memphis Center
Tue 05:18:10 PM 33.4006 -90.2875 189° South 451 519 28,000  Level Memphis Center
Tue 05:19:10 PM 33.2753 -90.3075 188° South 451 519 28,000  Level Memphis Center
Tue 05:20:10 PM 33.1500 -90.3275 188° South 451 519 28,000  Level Memphis Center
Tue 05:21:10 PM 33.0164 -90.3472 187° South 451 519 28,000  Level Memphis Center
Tue 05:22:10 PM 32.8994 -90.3647 187° South 441 507 28,000  Level Memphis Center
Tue 05:23:10 PM 32.7825 -90.3819 187° South 434 499 28,000  Level Memphis Center
Tue 05:24:10 PM 32.6656 -90.3992 187° South 427 491 28,000  Level Memphis Center
Tue 05:25:10 PM 32.5508 -90.4114 185° South 427 491 28,000  Level Memphis Center
Tue 05:26:10 PM 32.4361 -90.4214 184° South 422 486 28,000  Level Memphis Center
Tue 05:27:10 PM 32.3253 -90.4358 186° South 422 486 28,000  Level Memphis Center
Tue 05:28:10 PM 32.2106 -90.4458 184° South 416 479 28,000  Level Memphis Center
Tue 05:30:11 PM 31.9972 -90.4575 183° South 408 470 28,000  Level Houston Center
Tue 05:31:13 PM 31.8850 -90.4378 172° South 407 468 28,000 -48 Level Houston Center
Tue 05:32:15 PM 31.7722 -90.4172 171° South 408 470 27,900 -677 Descending Houston Center
Tue 05:33:17 PM 31.6417 -90.3953 172° South 396 456 26,600 -1,161 Descending Houston Center
Tue 05:34:19 PM 31.5372 -90.3753 171° South 384 442 25,500 -1,016 Descending Houston Center
Tue 05:35:21 PM 31.4314 -90.3572 172° South 383 441 24,500 -726 Descending Houston Center
Tue 05:36:23 PM 31.3272 -90.3394 172° South 380 437 24,000 -629 Descending Houston Center
Tue 05:37:25 PM 31.2264 -90.3208 171° South 371 427 23,200 -960 Descending Houston Center
Tue 05:38:28 PM 31.1272 -90.3039 172° South 361 415 22,000 -1,200 Descending Houston Center
Tue 05:39:30 PM 31.0175 -90.2853 172° South 334 384 20,700 -968 Descending Houston Center
Tue 05:40:32 PM 30.9319 -90.2706 172° South 315 362 20,000 -1,178 Descending Houston Center
Tue 05:41:17 PM 30.8683 -90.2589 171° South 301 346 18,600 -1,645 Descending Houston Center
Tue 05:41:34 PM 30.8497 -90.2558 172° South 305 351 18,300 -1,837 Descending Houston Center
Tue 05:42:06 PM 30.7969 -90.2472 172° South 303 349 17,100 -1,935 Descending Houston Center
Tue 05:42:36 PM 30.7650 -90.2422 172° South 306 352 16,300 -1,967 Descending Houston Center
Tue 05:43:07 PM 30.7150 -90.2336 172° South 300 345 15,100 -1,839 Descending Houston Center
Tue 05:43:38 PM 30.6839 -90.2269 170° South 299 344 14,400 -1,800 Descending Houston Center
Tue 05:44:07 PM 30.6331 -90.2178 171° South 295 339 13,300 -2,129 Descending Houston Center
Tue 05:44:40 PM 30.5881 -90.2103 172° South 293 337 12,200 -1,855 Descending Houston Center
Tue 05:45:02 PM 30.5617 -90.2014 164° South 285 328 11,600 -1,839 Descending Houston Center
Tue 05:45:42 PM 30.5342 -90.1544 124° Southeast 284 327 10,300 -1,869 Descending Houston Center
Tue 05:46:03 PM 30.5197 -90.1283 123° Southeast 276 318 9,700 -1,619 Descending Houston Center
Tue 05:46:45 PM 30.4756 -90.1033 154° Southeast 279 321 8,600 -1,600 Descending Houston Center
Tue 05:47:03 PM 30.4481 -90.1069 186° South 269 310 8,100 -1,645 Descending Houston Center
Tue 05:47:47 PM 30.4033 -90.1197 194° South 269 310 6,900 -1,245 Descending Houston Center
Tue 05:48:49 PM 30.3342 -90.1411 195° South 262 302 5,900 -1,071 Descending Houston Center
Tue 05:49:11 PM 30.3011 -90.1517 195° South 231 266 5,400 -1,355 Descending Houston Center
Tue 05:49:51 PM 30.2631 -90.1639 196° South 239 275 4,500 -1,309 Descending Houston Center
Tue 05:50:06 PM 30.2472 -90.1683 194° South 211 243 4,200 -871 Descending Houston Center
Tue 05:50:53 PM 30.2064 -90.1817 196° South 225 259 3,600 -881 Descending Houston Center
Tue 05:51:55 PM 30.1517 -90.1986 195° South 214 246 2,600 -744 Descending Houston Center
Tue 05:53:02 PM 30.0858 -90.2206 196° South 199 229 2,000 -726 Descending Houston Center
Tue 05:53:59 PM 30.0542 -90.2297 194° South 181 208 1,100 -958 Descending Houston Center
Tue 05:55:01 PM 30.0128 -90.2431 196° South 145 167 100 -968 Descending Houston Center

Login

Don't have an account? Register now (free) for customized features, flight alerts, and more!